createdAt,value
2024-05-09T00:01:11.115Z,60.52
2024-05-09T00:02:11.079Z,60.62
2024-05-09T00:03:12.549Z,60.68
2024-05-09T00:04:11.107Z,60.85
2024-05-09T00:05:12.147Z,60.96
2024-05-09T00:06:11.126Z,60.96
2024-05-09T00:07:11.069Z,61.01
2024-05-09T00:08:11.399Z,61.19
2024-05-09T00:09:11.066Z,61.22
2024-05-09T00:10:17.865Z,61.40
2024-05-09T00:11:13.567Z,61.69
2024-05-09T00:12:11.174Z,61.81
2024-05-09T00:13:11.485Z,61.99
2024-05-09T00:14:11.126Z,62.06
2024-05-09T00:15:11.069Z,62.24
2024-05-09T00:16:11.066Z,62.31
2024-05-09T00:17:11.143Z,62.24
2024-05-09T00:18:11.322Z,62.29
2024-05-09T00:19:11.418Z,62.41
2024-05-09T00:20:17.706Z,62.45
2024-05-09T00:21:13.372Z,62.40
2024-05-09T00:22:11.067Z,62.54
2024-05-09T00:23:13.001Z,62.55
2024-05-09T00:24:11.069Z,62.58
2024-05-09T00:25:11.097Z,62.54
2024-05-09T00:26:11.131Z,62.62
2024-05-09T00:27:13.256Z,62.71
2024-05-09T00:28:11.086Z,62.68
2024-05-09T00:29:11.149Z,62.99
2024-05-09T00:30:17.468Z,62.92
2024-05-09T00:31:13.200Z,63.06
2024-05-09T00:32:11.260Z,63.20
2024-05-09T00:33:11.891Z,63.29
2024-05-09T00:34:11.252Z,63.37
2024-05-09T00:35:11.115Z,63.45
2024-05-09T00:36:11.078Z,63.52
2024-05-09T00:37:11.073Z,63.52
2024-05-09T00:38:11.116Z,63.63
2024-05-09T00:39:11.079Z,63.78
2024-05-09T00:40:15.331Z,63.84
2024-05-09T00:41:14.589Z,63.92
2024-05-09T00:42:11.081Z,63.98
2024-05-09T00:43:11.731Z,64.04
2024-05-09T00:44:11.110Z,64.01
2024-05-09T00:45:11.086Z,64.09
2024-05-09T00:46:11.090Z,64.09
2024-05-09T00:47:11.228Z,64.11
2024-05-09T00:48:13.291Z,64.13
2024-05-09T00:49:11.214Z,64.20
2024-05-09T00:50:15.983Z,64.29
2024-05-09T00:51:13.313Z,64.36
2024-05-09T00:52:11.080Z,64.60
2024-05-09T00:53:12.221Z,64.76
2024-05-09T00:54:11.125Z,64.87
2024-05-09T00:55:11.114Z,64.93
2024-05-09T00:56:11.149Z,64.96
2024-05-09T00:57:11.093Z,64.95
2024-05-09T00:58:12.150Z,64.99
2024-05-09T00:59:11.127Z,65.08
2024-05-09T01:00:22.096Z,65.38
2024-05-09T01:01:13.210Z,65.34
2024-05-09T01:02:11.204Z,65.35
2024-05-09T01:03:13.239Z,65.31
2024-05-09T01:04:11.523Z,65.39
2024-05-09T01:05:11.347Z,65.53
2024-05-09T01:06:11.084Z,65.62
2024-05-09T01:07:11.133Z,65.75
2024-05-09T01:08:11.268Z,65.78
2024-05-09T01:09:11.135Z,65.89
2024-05-09T01:10:17.053Z,66.03
2024-05-09T01:11:13.138Z,66.09
2024-05-09T01:12:11.422Z,66.22
2024-05-09T01:13:11.191Z,66.26
2024-05-09T01:14:11.220Z,66.32
2024-05-09T01:15:11.090Z,66.35
2024-05-09T01:16:11.190Z,66.58
2024-05-09T01:17:11.215Z,66.43
2024-05-09T01:18:13.562Z,66.61
2024-05-09T01:19:19.291Z,66.60
2024-05-09T01:20:19.707Z,66.58
2024-05-09T01:21:15.271Z,66.53
2024-05-09T01:22:11.169Z,66.69
2024-05-09T01:23:11.598Z,66.66
2024-05-09T01:24:11.149Z,66.69
2024-05-09T01:25:11.148Z,66.74
2024-05-09T01:26:11.202Z,66.69
2024-05-09T01:27:11.154Z,66.63
2024-05-09T01:28:11.195Z,66.73
2024-05-09T01:29:11.224Z,66.90
2024-05-09T01:30:17.193Z,66.86
2024-05-09T01:31:13.156Z,66.80
2024-05-09T01:32:11.319Z,66.88
2024-05-09T01:33:12.439Z,66.84
2024-05-09T01:34:11.298Z,66.97
2024-05-09T01:35:11.185Z,67.11
2024-05-09T01:36:11.207Z,67.00
2024-05-09T01:37:11.128Z,67.15
2024-05-09T01:38:11.227Z,67.29
2024-05-09T01:39:11.161Z,67.31
2024-05-09T01:40:15.049Z,67.31
2024-05-09T01:41:13.312Z,67.40
2024-05-09T01:42:11.211Z,67.53
2024-05-09T01:43:12.114Z,67.79
2024-05-09T01:44:11.181Z,67.72
2024-05-09T01:45:11.173Z,67.77
2024-05-09T01:46:15.091Z,67.99
2024-05-09T01:47:11.325Z,67.94
2024-05-09T01:48:11.715Z,68.20
2024-05-09T01:49:11.286Z,68.12
2024-05-09T01:50:11.506Z,68.12
2024-05-09T01:51:11.486Z,68.12
2024-05-09T01:52:11.204Z,68.17
2024-05-09T01:53:11.358Z,68.14
2024-05-09T01:54:11.190Z,68.04
2024-05-09T01:55:11.170Z,68.16
2024-05-09T01:56:11.359Z,68.24
2024-05-09T01:57:11.199Z,68.15
2024-05-09T01:58:11.208Z,68.15
2024-05-09T01:59:11.160Z,68.18
2024-05-09T02:00:15.573Z,68.21
2024-05-09T02:01:11.291Z,68.13
2024-05-09T02:02:11.369Z,68.20
2024-05-09T02:03:15.805Z,68.19
2024-05-09T02:04:11.344Z,68.18
2024-05-09T02:05:11.200Z,68.21
2024-05-09T02:06:11.563Z,68.27
2024-05-09T02:07:11.201Z,68.18
2024-05-09T02:08:13.163Z,68.16
2024-05-09T02:09:11.091Z,68.29
2024-05-09T02:10:16.645Z,68.37
2024-05-09T02:11:14.574Z,68.44
2024-05-09T02:12:11.337Z,68.48
2024-05-09T02:13:11.273Z,68.36
2024-05-09T02:14:11.178Z,68.35
2024-05-09T02:15:11.093Z,68.29
2024-05-09T02:16:13.093Z,68.19
2024-05-09T02:17:11.245Z,68.19
2024-05-09T02:18:11.480Z,68.14
2024-05-09T02:19:11.377Z,68.21
2024-05-09T02:21:11.174Z,68.13
2024-05-09T02:22:11.218Z,68.12
2024-05-09T02:23:11.312Z,68.21
2024-05-09T02:24:11.157Z,68.25
2024-05-09T02:25:11.198Z,68.16
2024-05-09T02:26:11.278Z,68.36
2024-05-09T02:27:11.092Z,68.18
2024-05-09T02:28:11.096Z,68.22
2024-05-09T02:29:11.132Z,68.19
2024-05-09T02:30:18.631Z,68.53
2024-05-09T02:31:15.277Z,68.65
2024-05-09T02:32:11.198Z,68.79
2024-05-09T02:33:14.008Z,68.74
2024-05-09T02:34:11.187Z,69.02
2024-05-09T02:35:11.177Z,69.10
2024-05-09T02:36:11.091Z,69.07
2024-05-09T02:37:11.093Z,69.00
2024-05-09T02:38:11.293Z,69.05
2024-05-09T02:39:11.107Z,68.96
2024-05-09T02:40:14.751Z,68.92
2024-05-09T02:41:13.363Z,69.00
2024-05-09T02:42:11.090Z,69.23
2024-05-09T02:43:11.801Z,69.02
2024-05-09T02:44:11.143Z,69.01
2024-05-09T02:45:11.094Z,68.88
2024-05-09T02:46:11.103Z,68.79
2024-05-09T02:47:11.157Z,68.70
2024-05-09T02:48:14.034Z,68.69
2024-05-09T02:49:11.308Z,68.58
2024-05-09T02:50:16.116Z,68.58
2024-05-09T02:51:13.223Z,68.58
2024-05-09T02:52:11.091Z,68.55
2024-05-09T02:53:11.195Z,68.46
2024-05-09T02:54:11.093Z,68.65
2024-05-09T02:55:11.094Z,68.78
2024-05-09T02:56:11.126Z,69.01
2024-05-09T02:57:11.080Z,68.96
2024-05-09T02:58:11.128Z,68.88
2024-05-09T02:59:11.085Z,68.79
2024-05-09T03:00:18.490Z,68.70
2024-05-09T03:01:13.102Z,68.81
2024-05-09T03:02:11.188Z,68.90
2024-05-09T03:03:13.364Z,68.96
2024-05-09T03:04:11.160Z,68.91
2024-05-09T03:05:11.078Z,68.98
2024-05-09T03:06:11.067Z,69.11
2024-05-09T03:07:11.090Z,69.29
2024-05-09T03:08:11.225Z,69.29
2024-05-09T03:09:12.065Z,69.30
2024-05-09T03:10:18.349Z,69.39
2024-05-09T03:11:13.216Z,69.52
2024-05-09T03:12:11.152Z,69.51
2024-05-09T03:13:11.065Z,69.50
2024-05-09T03:14:11.120Z,69.67
2024-05-09T03:15:11.070Z,69.71
2024-05-09T03:16:11.062Z,69.72
2024-05-09T03:17:11.139Z,69.76
2024-05-09T03:18:11.608Z,69.75
2024-05-09T03:19:11.158Z,69.78
2024-05-09T03:20:20.002Z,69.89
2024-05-09T03:21:13.076Z,69.76
2024-05-09T03:22:11.068Z,69.80
2024-05-09T03:23:11.099Z,69.78
2024-05-09T03:24:11.087Z,69.97
2024-05-09T03:25:11.067Z,69.99
2024-05-09T03:26:13.118Z,70.17
2024-05-09T03:27:11.075Z,70.15
2024-05-09T03:28:11.075Z,70.29
2024-05-09T03:29:11.105Z,70.53
2024-05-09T03:30:15.511Z,70.62
2024-05-09T03:31:13.042Z,70.69
2024-05-09T03:32:11.130Z,70.71
2024-05-09T03:33:14.146Z,70.95
2024-05-09T03:34:11.209Z,70.99
2024-05-09T03:35:11.156Z,70.92
2024-05-09T03:36:11.526Z,70.92
2024-05-09T03:37:11.084Z,70.89
2024-05-09T03:38:11.257Z,70.94
2024-05-09T03:39:12.116Z,70.95
2024-05-09T03:40:14.708Z,70.92
2024-05-09T03:41:13.068Z,70.89
2024-05-09T03:42:11.076Z,70.84
2024-05-09T03:43:11.079Z,70.76
2024-05-09T03:44:11.131Z,70.74
2024-05-09T03:45:11.076Z,70.69
2024-05-09T03:46:11.079Z,70.63
2024-05-09T03:47:11.115Z,70.68
2024-05-09T03:48:11.404Z,70.59
2024-05-09T03:49:11.147Z,70.54
2024-05-09T03:50:18.306Z,70.90
2024-05-09T03:51:13.608Z,71.05
2024-05-09T03:52:11.075Z,71.02
2024-05-09T03:53:13.218Z,71.15
2024-05-09T03:54:11.074Z,71.05
2024-05-09T03:55:11.077Z,71.05
2024-05-09T03:56:11.121Z,71.37
2024-05-09T03:57:11.080Z,71.58
2024-05-09T03:58:11.076Z,71.73
2024-05-09T03:59:11.106Z,71.63
2024-05-09T04:00:17.678Z,71.74
2024-05-09T04:01:13.334Z,71.86
2024-05-09T04:02:11.178Z,71.82
2024-05-09T04:03:12.747Z,71.88
2024-05-09T04:04:11.117Z,71.89
2024-05-09T04:05:11.155Z,71.98
2024-05-09T04:06:11.076Z,71.94
2024-05-09T04:07:11.076Z,71.93
2024-05-09T04:08:11.568Z,71.86
2024-05-09T04:09:11.076Z,72.00
2024-05-09T04:10:17.135Z,71.97
2024-05-09T04:11:13.561Z,71.91
2024-05-09T04:12:11.152Z,71.87
2024-05-09T04:13:11.166Z,71.82
2024-05-09T04:14:11.114Z,71.86
2024-05-09T04:15:13.247Z,71.92
2024-05-09T04:16:11.079Z,71.86
2024-05-09T04:17:11.122Z,71.87
2024-05-09T04:18:11.240Z,71.81
2024-05-09T04:19:11.144Z,71.89
2024-05-09T04:20:21.065Z,72.09
2024-05-09T04:21:13.322Z,72.33
2024-05-09T04:22:11.083Z,72.38
2024-05-09T04:23:13.792Z,72.47
2024-05-09T04:24:11.100Z,72.45
2024-05-09T04:25:11.076Z,72.45
2024-05-09T04:26:11.122Z,72.62
2024-05-09T04:27:11.101Z,72.63
2024-05-09T04:28:11.087Z,72.57
2024-05-09T04:29:11.120Z,72.61
2024-05-09T04:30:18.448Z,72.61
2024-05-09T04:31:13.312Z,72.66
2024-05-09T04:32:11.202Z,72.52
2024-05-09T04:33:13.155Z,72.46
2024-05-09T04:34:11.187Z,72.51
2024-05-09T04:35:11.185Z,72.42
2024-05-09T04:36:11.084Z,72.50
2024-05-09T04:37:11.075Z,72.51
2024-05-09T04:38:11.183Z,72.50
2024-05-09T04:39:11.083Z,72.47
2024-05-09T04:40:17.214Z,72.53
2024-05-09T04:41:13.346Z,72.49
2024-05-09T04:42:11.079Z,72.44
2024-05-09T04:43:15.077Z,72.38
2024-05-09T04:44:11.128Z,72.26
2024-05-09T04:45:11.094Z,72.22
2024-05-09T04:46:11.093Z,72.21
2024-05-09T04:47:11.186Z,72.23
2024-05-09T04:48:11.389Z,72.18
2024-05-09T04:49:11.272Z,72.17
2024-05-09T04:50:14.567Z,72.12
2024-05-09T04:51:13.357Z,72.12
2024-05-09T04:52:11.078Z,72.13
2024-05-09T04:53:14.103Z,72.12
2024-05-09T04:54:22.107Z,72.10
2024-05-09T04:55:13.196Z,72.20
2024-05-09T04:56:11.106Z,72.15
2024-05-09T04:57:11.092Z,72.11
2024-05-09T04:58:11.084Z,72.26
2024-05-09T04:59:11.172Z,72.26
2024-05-09T05:00:14.788Z,72.30
2024-05-09T05:01:13.336Z,72.29
2024-05-09T05:02:11.196Z,72.34
2024-05-09T05:03:13.615Z,72.36
2024-05-09T05:04:11.131Z,72.38
2024-05-09T05:05:12.006Z,72.43
2024-05-09T05:06:11.135Z,72.76
2024-05-09T05:07:11.085Z,72.74
2024-05-09T05:08:17.156Z,73.02
2024-05-09T05:09:11.085Z,73.12
2024-05-09T05:10:15.050Z,73.20
2024-05-09T05:11:13.508Z,73.14
2024-05-09T05:12:15.259Z,73.00
2024-05-09T05:13:15.122Z,73.00
2024-05-09T05:14:11.190Z,72.93
2024-05-09T05:15:11.088Z,72.91
2024-05-09T05:16:11.105Z,72.86
2024-05-09T05:17:11.098Z,72.64
2024-05-09T05:18:11.243Z,72.53
2024-05-09T05:19:14.287Z,72.41
2024-05-09T05:20:17.847Z,72.28
2024-05-09T05:21:13.300Z,72.15
2024-05-09T05:22:11.091Z,72.10
2024-05-09T05:23:12.173Z,72.22
2024-05-09T05:24:11.085Z,72.19
2024-05-09T05:25:11.090Z,72.14
2024-05-09T05:26:11.139Z,72.13
2024-05-09T05:27:11.127Z,72.15
2024-05-09T05:28:11.140Z,72.09
2024-05-09T05:29:11.145Z,72.08
2024-05-09T05:30:17.621Z,72.09
2024-05-09T05:31:13.473Z,72.09
2024-05-09T05:32:11.261Z,72.02
2024-05-09T05:33:13.509Z,72.02
2024-05-09T05:34:11.112Z,72.07
2024-05-09T05:35:11.138Z,72.21
2024-05-09T05:36:11.085Z,72.30
2024-05-09T05:37:11.091Z,72.41
2024-05-09T05:38:11.386Z,72.40
2024-05-09T05:39:11.096Z,72.48
2024-05-09T05:41:11.129Z,72.57
2024-05-09T05:42:11.090Z,72.59
2024-05-09T05:43:15.094Z,72.64
2024-05-09T05:44:11.110Z,72.67
2024-05-09T05:45:11.091Z,72.87
2024-05-09T05:46:11.095Z,73.09
2024-05-09T05:47:11.155Z,73.28
2024-05-09T05:48:11.357Z,73.46
2024-05-09T05:49:11.274Z,73.66
2024-05-09T05:50:20.763Z,73.69
2024-05-09T05:51:13.495Z,73.80
2024-05-09T05:52:12.100Z,73.92
2024-05-09T05:53:11.192Z,74.16
2024-05-09T05:54:11.092Z,74.28
2024-05-09T05:55:11.099Z,74.18
2024-05-09T05:56:11.196Z,74.08
2024-05-09T05:57:11.070Z,74.30
2024-05-09T05:58:11.106Z,74.33
2024-05-09T05:59:12.591Z,74.25
2024-05-09T06:00:17.984Z,74.24
2024-05-09T06:01:13.414Z,74.20
2024-05-09T06:02:11.125Z,74.39
2024-05-09T06:03:11.477Z,74.45
2024-05-09T06:04:11.134Z,74.39
2024-05-09T06:05:11.145Z,74.30
2024-05-09T06:06:11.116Z,74.10
2024-05-09T06:07:11.064Z,74.20
2024-05-09T06:08:11.102Z,74.48
2024-05-09T06:09:11.068Z,74.49
2024-05-09T06:10:17.369Z,74.47
2024-05-09T06:11:13.385Z,74.41
2024-05-09T06:12:11.220Z,74.37
2024-05-09T06:13:11.856Z,74.58
2024-05-09T06:14:11.143Z,74.60
2024-05-09T06:15:11.075Z,74.49
2024-05-09T06:16:11.067Z,74.61
2024-05-09T06:17:11.156Z,74.55
2024-05-09T06:18:12.331Z,74.63
2024-05-09T06:19:11.186Z,74.76
2024-05-09T06:20:16.766Z,74.78
2024-05-09T06:21:13.470Z,74.83
2024-05-09T06:22:11.070Z,74.58
2024-05-09T06:23:11.209Z,74.59
2024-05-09T06:24:11.069Z,74.55
2024-05-09T06:25:11.071Z,74.62
2024-05-09T06:26:11.114Z,74.46
2024-05-09T06:27:11.069Z,74.49
2024-05-09T06:28:11.069Z,74.76
2024-05-09T06:29:11.083Z,74.82
2024-05-09T06:30:21.155Z,74.73
2024-05-09T06:31:13.176Z,74.52
2024-05-09T06:32:11.141Z,74.45
2024-05-09T06:33:13.080Z,74.30
2024-05-09T06:34:11.176Z,74.18
2024-05-09T06:35:11.085Z,74.19
2024-05-09T06:36:11.078Z,74.08
2024-05-09T06:37:11.072Z,73.89
2024-05-09T06:38:11.772Z,73.78
2024-05-09T06:39:11.074Z,73.52
2024-05-09T06:40:12.559Z,73.49
2024-05-09T06:41:11.122Z,73.23
2024-05-09T06:42:11.102Z,73.22
2024-05-09T06:43:17.342Z,73.48
2024-05-09T06:44:11.107Z,73.23
2024-05-09T06:45:11.072Z,73.07
2024-05-09T06:46:11.076Z,72.86
2024-05-09T06:47:11.164Z,72.55
2024-05-09T06:48:11.399Z,72.28
2024-05-09T06:49:12.437Z,72.30
2024-05-09T06:50:16.543Z,72.42
2024-05-09T06:51:13.616Z,72.26
2024-05-09T06:52:11.082Z,72.16
2024-05-09T06:53:11.110Z,72.02
2024-05-09T06:54:11.074Z,71.80
2024-05-09T06:55:11.092Z,71.80
2024-05-09T06:56:11.157Z,71.66
2024-05-09T06:57:11.082Z,71.54
2024-05-09T06:58:11.077Z,71.56
2024-05-09T06:59:11.106Z,71.40
2024-05-09T07:00:15.455Z,71.23
2024-05-09T07:01:13.181Z,70.95
2024-05-09T07:02:11.135Z,70.78
2024-05-09T07:03:17.380Z,70.75
2024-05-09T07:04:11.317Z,70.54
2024-05-09T07:05:11.179Z,70.46
2024-05-09T07:06:11.187Z,70.43
2024-05-09T07:07:12.081Z,70.59
2024-05-09T07:08:11.124Z,70.56
2024-05-09T07:09:11.087Z,70.38
2024-05-09T07:10:17.944Z,70.13
2024-05-09T07:11:13.116Z,69.34
2024-05-09T07:12:11.227Z,68.87
2024-05-09T07:13:13.378Z,68.52
2024-05-09T07:14:11.141Z,68.25
2024-05-09T07:15:11.083Z,68.25
2024-05-09T07:16:11.075Z,68.45
2024-05-09T07:17:11.198Z,68.41
2024-05-09T07:18:13.806Z,68.41
2024-05-09T07:19:11.429Z,68.34
2024-05-09T07:20:16.556Z,68.28
2024-05-09T07:21:13.377Z,67.54
2024-05-09T07:22:11.086Z,66.99
2024-05-09T07:23:13.272Z,66.29
2024-05-09T07:24:11.079Z,66.15
2024-05-09T07:25:11.082Z,65.73
2024-05-09T07:26:11.136Z,65.58
2024-05-09T07:27:11.079Z,65.11
2024-05-09T07:28:17.122Z,64.92
2024-05-09T07:29:11.120Z,65.03
2024-05-09T07:30:13.544Z,64.61
2024-05-09T07:31:13.189Z,64.35
2024-05-09T07:32:11.159Z,63.80
2024-05-09T07:33:14.238Z,63.69
2024-05-09T07:34:11.147Z,63.47
2024-05-09T07:35:11.166Z,63.36
2024-05-09T07:36:11.085Z,63.08
2024-05-09T07:37:16.119Z,62.77
2024-05-09T07:38:11.124Z,62.54
2024-05-09T07:39:11.087Z,62.02
2024-05-09T07:40:14.744Z,61.89
2024-05-09T07:41:13.375Z,61.92
2024-05-09T07:42:11.093Z,61.67
2024-05-09T07:43:11.084Z,60.81
2024-05-09T07:44:11.120Z,60.27
2024-05-09T07:45:29.693Z,59.75
2024-05-09T07:47:14.117Z,59.65
2024-05-09T07:48:28.036Z,59.41
2024-05-09T07:49:44.564Z,59.62
2024-05-09T07:50:55.387Z,59.29
2024-05-09T07:53:29.207Z,58.87
2024-05-09T07:53:37.280Z,58.47
2024-05-09T07:54:13.393Z,58.66
2024-05-09T07:55:11.284Z,58.80
2024-05-09T07:56:12.017Z,58.68
2024-05-09T07:57:11.150Z,58.78
2024-05-09T07:58:11.164Z,58.90
2024-05-09T07:59:11.089Z,58.62
2024-05-09T08:00:14.257Z,58.73
2024-05-09T08:01:11.250Z,58.78
2024-05-09T08:02:11.485Z,58.13
2024-05-09T08:03:11.183Z,58.33
2024-05-09T08:04:11.229Z,57.80
2024-05-09T08:05:11.301Z,57.56
2024-05-09T08:06:11.089Z,57.19
2024-05-09T08:07:11.235Z,57.09
2024-05-09T08:08:11.097Z,57.00
2024-05-09T08:09:16.712Z,56.76
2024-05-09T08:10:18.679Z,56.55
2024-05-09T08:11:13.124Z,56.39
2024-05-09T08:12:12.089Z,56.08
2024-05-09T08:13:11.220Z,55.91
2024-05-09T08:14:11.099Z,55.92
2024-05-09T08:15:11.096Z,56.01
2024-05-09T08:16:11.171Z,55.96
2024-05-09T08:17:11.160Z,54.84
2024-05-09T08:18:11.340Z,54.25
2024-05-09T08:19:11.190Z,54.17
2024-05-09T08:21:11.088Z,54.16
2024-05-09T08:22:11.117Z,53.72
2024-05-09T08:23:11.142Z,53.61
2024-05-09T08:24:11.091Z,53.93
2024-05-09T08:25:13.536Z,54.09
2024-05-09T08:26:11.111Z,54.08
2024-05-09T08:27:11.089Z,54.27
2024-05-09T08:28:11.150Z,54.39
2024-05-09T08:29:11.103Z,53.87
2024-05-09T08:30:18.829Z,53.67
2024-05-09T08:31:13.682Z,53.34
2024-05-09T08:32:11.113Z,53.67
2024-05-09T08:33:11.156Z,54.00
2024-05-09T08:34:11.403Z,53.48
2024-05-09T08:35:11.101Z,53.05
2024-05-09T08:36:11.098Z,53.31
2024-05-09T08:37:15.766Z,53.06
2024-05-09T08:38:13.502Z,52.70
2024-05-09T08:39:11.090Z,52.19
2024-05-09T08:40:16.687Z,51.87
2024-05-09T08:41:14.542Z,52.00
2024-05-09T08:42:13.095Z,51.38
2024-05-09T08:43:12.684Z,50.91
2024-05-09T08:44:11.109Z,50.80
2024-05-09T08:45:12.094Z,50.92
2024-05-09T08:46:11.161Z,50.78
2024-05-09T08:47:12.157Z,50.72
2024-05-09T08:48:11.234Z,50.50
2024-05-09T08:49:11.236Z,51.03
2024-05-09T08:50:23.479Z,50.52
2024-05-09T08:51:13.199Z,50.28
2024-05-09T08:52:11.128Z,49.98
2024-05-09T08:53:11.112Z,49.89
2024-05-09T08:54:11.122Z,50.56
2024-05-09T08:55:11.207Z,50.45
2024-05-09T08:56:11.169Z,50.09
2024-05-09T08:57:11.066Z,49.72
2024-05-09T08:58:12.255Z,49.61
2024-05-09T08:59:11.070Z,49.53
2024-05-09T09:00:15.042Z,49.50
2024-05-09T09:01:13.369Z,49.41
2024-05-09T09:02:13.361Z,48.92
2024-05-09T09:03:12.123Z,48.55
2024-05-09T09:04:11.165Z,48.82
2024-05-09T09:05:13.162Z,48.41
2024-05-09T09:06:13.065Z,48.48
2024-05-09T09:07:11.127Z,48.83
2024-05-09T09:08:11.064Z,48.62
2024-05-09T09:09:11.076Z,48.66
2024-05-09T09:10:17.617Z,48.70
2024-05-09T09:11:13.158Z,48.64
2024-05-09T09:12:11.080Z,48.73
2024-05-09T09:13:12.103Z,48.42
2024-05-09T09:14:11.073Z,48.76
2024-05-09T09:15:11.066Z,48.55
2024-05-09T09:16:11.130Z,47.73
2024-05-09T09:17:17.083Z,47.52
2024-05-09T09:18:13.178Z,47.08
2024-05-09T09:19:11.279Z,46.78
2024-05-09T09:20:14.467Z,47.12
2024-05-09T09:21:13.113Z,46.51
2024-05-09T09:22:11.211Z,46.24
2024-05-09T09:23:11.068Z,46.40
2024-05-09T09:24:12.081Z,46.60
2024-05-09T09:25:11.113Z,46.61
2024-05-09T09:26:14.071Z,47.25
2024-05-09T09:27:13.075Z,46.84
2024-05-09T09:28:11.327Z,46.83
2024-05-09T09:29:11.071Z,47.25
2024-05-09T09:30:22.459Z,46.51
2024-05-09T09:31:13.522Z,46.17
2024-05-09T09:32:11.078Z,45.98
2024-05-09T09:33:11.510Z,45.82
2024-05-09T09:34:11.369Z,45.93
2024-05-09T09:35:11.068Z,46.08
2024-05-09T09:36:11.756Z,46.16
2024-05-09T09:37:11.234Z,45.55
2024-05-09T09:38:11.298Z,45.25
2024-05-09T09:39:11.079Z,44.90
2024-05-09T09:40:13.189Z,44.93
2024-05-09T09:41:11.159Z,44.75
2024-05-09T09:42:11.090Z,44.93
2024-05-09T09:43:17.153Z,44.49
2024-05-09T09:44:11.074Z,44.44
2024-05-09T09:45:11.077Z,44.23
2024-05-09T09:46:12.756Z,44.06
2024-05-09T09:47:11.120Z,43.94
2024-05-09T09:48:11.243Z,43.73
2024-05-09T09:49:11.267Z,43.95
2024-05-09T09:50:14.457Z,43.64
2024-05-09T09:51:13.073Z,43.68
2024-05-09T09:52:11.383Z,43.55
2024-05-09T09:53:11.075Z,43.49
2024-05-09T09:54:11.079Z,43.32
2024-05-09T09:55:11.217Z,43.19
2024-05-09T09:56:11.081Z,43.03
2024-05-09T09:57:11.082Z,43.63
2024-05-09T09:58:13.906Z,43.15
2024-05-09T09:59:12.078Z,42.78
2024-05-09T10:00:11.936Z,42.66
2024-05-09T10:01:11.178Z,42.48
2024-05-09T10:02:11.303Z,42.54
2024-05-09T10:03:11.092Z,42.18
2024-05-09T10:04:11.151Z,42.01
2024-05-09T10:05:11.285Z,41.78
2024-05-09T10:06:11.083Z,41.88
2024-05-09T10:07:11.228Z,41.88
2024-05-09T10:08:11.085Z,41.60
2024-05-09T10:09:13.092Z,41.66
2024-05-09T10:10:13.859Z,41.55
2024-05-09T10:11:13.286Z,41.35
2024-05-09T10:12:15.131Z,41.82
2024-05-09T10:13:11.216Z,41.55
2024-05-09T10:14:11.079Z,41.34
2024-05-09T10:15:11.090Z,40.97
2024-05-09T10:16:11.615Z,41.07
2024-05-09T10:17:11.108Z,41.36
2024-05-09T10:18:11.353Z,41.01
2024-05-09T10:19:11.178Z,41.12
2024-05-09T10:20:18.229Z,41.50
2024-05-09T10:21:19.244Z,41.33
2024-05-09T10:22:12.147Z,41.61
2024-05-09T10:23:19.088Z,40.99
2024-05-09T10:24:12.085Z,41.52
2024-05-09T10:25:11.145Z,40.89
2024-05-09T10:26:11.092Z,40.88
2024-05-09T10:27:11.083Z,40.33
2024-05-09T10:28:12.242Z,40.01
2024-05-09T10:29:14.130Z,39.41
2024-05-09T10:30:14.752Z,39.25
2024-05-09T10:31:13.540Z,40.05
2024-05-09T10:32:11.108Z,40.53
2024-05-09T10:33:12.298Z,40.02
2024-05-09T10:34:20.736Z,39.38
2024-05-09T10:35:11.186Z,39.27
2024-05-09T10:36:19.106Z,38.81
2024-05-09T10:37:11.131Z,38.95
2024-05-09T10:38:11.085Z,39.73
2024-05-09T10:39:11.094Z,39.77
2024-05-09T10:40:20.265Z,39.92
2024-05-09T10:41:13.241Z,39.83
2024-05-09T10:42:11.093Z,39.27
2024-05-09T10:43:15.224Z,39.42
2024-05-09T10:44:14.088Z,39.71
2024-05-09T10:45:11.093Z,39.80
2024-05-09T10:46:11.485Z,39.89
2024-05-09T10:47:11.116Z,39.56
2024-05-09T10:48:11.217Z,38.95
2024-05-09T10:49:11.147Z,38.91
2024-05-09T10:50:18.539Z,38.86
2024-05-09T10:51:13.249Z,39.33
2024-05-09T10:52:11.162Z,38.96
2024-05-09T10:53:11.100Z,38.79
2024-05-09T10:54:11.098Z,38.71
2024-05-09T10:55:11.134Z,37.94
2024-05-09T10:56:11.098Z,38.41
2024-05-09T10:57:11.109Z,38.05
2024-05-09T10:58:17.203Z,37.38
2024-05-09T10:59:12.093Z,37.34
2024-05-09T11:00:19.018Z,38.11
2024-05-09T11:01:14.075Z,38.66
2024-05-09T11:02:11.353Z,38.53
2024-05-09T11:03:11.139Z,38.77
2024-05-09T11:04:11.180Z,39.60
2024-05-09T11:05:11.266Z,39.15
2024-05-09T11:06:11.123Z,39.39
2024-05-09T11:07:11.136Z,39.10
2024-05-09T11:08:11.097Z,38.53
2024-05-09T11:09:11.094Z,37.92
2024-05-09T11:10:14.537Z,37.89
2024-05-09T11:11:11.092Z,38.15
2024-05-09T11:12:11.118Z,37.92
2024-05-09T11:13:11.125Z,38.50
2024-05-09T11:14:15.095Z,37.86
2024-05-09T11:15:11.098Z,38.86
2024-05-09T11:16:17.514Z,39.72
2024-05-09T11:17:11.128Z,39.47
2024-05-09T11:18:21.673Z,39.06
2024-05-09T11:19:15.440Z,38.50
2024-05-09T11:20:17.061Z,38.68
2024-05-09T11:21:17.212Z,38.52
2024-05-09T11:22:11.126Z,38.92
2024-05-09T11:23:11.096Z,38.89
2024-05-09T11:24:11.691Z,37.87
2024-05-09T11:25:11.218Z,37.85
2024-05-09T11:26:11.227Z,38.23
2024-05-09T11:27:11.101Z,38.88
2024-05-09T11:28:12.202Z,38.58
2024-05-09T11:29:11.122Z,38.02
2024-05-09T11:30:24.211Z,37.81
2024-05-09T11:31:13.466Z,37.72
2024-05-09T11:32:11.153Z,38.08
2024-05-09T11:33:12.129Z,39.02
2024-05-09T11:34:11.129Z,39.04
2024-05-09T11:35:11.100Z,38.04
2024-05-09T11:36:11.098Z,37.63
2024-05-09T11:37:11.221Z,37.71
2024-05-09T11:38:11.107Z,38.06
2024-05-09T11:39:11.102Z,37.79
2024-05-09T11:40:13.883Z,37.51
2024-05-09T11:41:17.092Z,38.72
2024-05-09T11:42:11.100Z,38.02
2024-05-09T11:43:11.161Z,37.88
2024-05-09T11:44:11.100Z,38.51
2024-05-09T11:45:11.118Z,38.63
2024-05-09T11:46:11.251Z,39.05
2024-05-09T11:47:11.209Z,39.35
2024-05-09T11:48:11.170Z,39.74
2024-05-09T11:49:11.342Z,38.79
2024-05-09T11:50:18.995Z,38.78
2024-05-09T11:51:13.172Z,38.54
2024-05-09T11:52:11.195Z,38.47
2024-05-09T11:53:11.103Z,38.57
2024-05-09T11:54:11.105Z,38.74
2024-05-09T11:55:11.265Z,38.63
2024-05-09T11:56:11.103Z,38.15
2024-05-09T11:57:11.068Z,37.98
2024-05-09T11:58:11.269Z,37.83
2024-05-09T11:59:11.059Z,37.93
2024-05-09T12:00:15.014Z,38.03
2024-05-09T12:01:13.391Z,37.71
2024-05-09T12:02:11.413Z,37.20
2024-05-09T12:03:11.129Z,36.93
2024-05-09T12:04:11.311Z,37.01
2024-05-09T12:05:11.184Z,37.34
2024-05-09T12:06:11.092Z,38.11
2024-05-09T12:07:12.876Z,38.75
2024-05-09T12:08:11.070Z,39.09
2024-05-09T12:09:11.066Z,38.55
2024-05-09T12:10:16.597Z,37.88
2024-05-09T12:11:13.446Z,37.85
2024-05-09T12:12:11.068Z,38.20
2024-05-09T12:13:11.107Z,38.42
2024-05-09T12:14:11.080Z,38.37
2024-05-09T12:15:11.067Z,39.15
2024-05-09T12:16:11.159Z,38.60
2024-05-09T12:17:11.095Z,38.04
2024-05-09T12:18:11.103Z,38.01
2024-05-09T12:19:11.236Z,37.90
2024-05-09T12:20:21.003Z,38.26
2024-05-09T12:21:13.283Z,37.99
2024-05-09T12:22:11.152Z,37.77
2024-05-09T12:23:11.206Z,37.64
2024-05-09T12:24:12.100Z,37.42
2024-05-09T12:25:11.115Z,36.60
2024-05-09T12:26:11.082Z,36.40
2024-05-09T12:27:11.071Z,36.65
2024-05-09T12:28:11.143Z,36.79
2024-05-09T12:29:11.074Z,37.68
2024-05-09T12:30:14.249Z,37.47
2024-05-09T12:31:13.595Z,38.15
2024-05-09T12:32:11.147Z,37.63
2024-05-09T12:33:12.341Z,37.49
2024-05-09T12:34:11.182Z,37.73
2024-05-09T12:35:11.084Z,37.90
2024-05-09T12:36:11.081Z,38.30
2024-05-09T12:37:11.263Z,38.03
2024-05-09T12:38:11.072Z,37.73
2024-05-09T12:39:11.094Z,36.96
2024-05-09T12:40:18.739Z,36.96
2024-05-09T12:41:13.260Z,37.64
2024-05-09T12:42:14.616Z,37.75
2024-05-09T12:43:13.406Z,37.01
2024-05-09T12:44:11.078Z,36.85
2024-05-09T12:45:11.076Z,37.06
2024-05-09T12:46:11.113Z,36.61
2024-05-09T12:47:11.086Z,36.95
2024-05-09T12:48:12.041Z,37.33
2024-05-09T12:49:12.209Z,37.74
2024-05-09T12:50:18.710Z,37.35
2024-05-09T12:51:13.487Z,37.20
2024-05-09T12:52:11.329Z,37.27
2024-05-09T12:53:11.129Z,36.42
2024-05-09T12:54:11.084Z,36.36
2024-05-09T12:55:11.182Z,36.17
2024-05-09T12:56:11.134Z,36.89
2024-05-09T12:57:11.101Z,37.72
2024-05-09T12:58:11.339Z,38.19